ADDS METAR Data INFO
IDs: Format: Raw Decoded Include TAF

Data at: 1933 UTC 16 Aug 2017

KGKY 161853Z 18011G17KT 10SM FEW039 31/23 A2992 RMK AO2 RAB10E21 SLP121 P0000 T03110233
KGKY 161753Z 17015G19KT 10SM BKN041 32/23 A2993 RMK AO2 SLP124 T03170233 10322 20261 58002
KGKY 161653Z 17014G18KT 10SM BKN037 BKN090 32/23 A2994 RMK AO2 SLP127 T03170233
KGKY 161553Z 17013G23KT 10SM BKN031 31/23 A2994 RMK AO2 PK WND 17026/1534 SLP127 T03060233
KGKY 161545Z 18013G22KT 10SM BKN031 31/23 A2994 RMK AO2 PK WND 17026/1534 T03060233
KGKY 161537Z 19015G26KT 10SM BKN029 30/23 A2994 RMK AO2 PK WND 17026/1534 T03000233
KGKY 161453Z 18013G20KT 10SM FEW027 SCT080 29/24 A2993 RMK AO2 SLP125 T02940239 51012
KGKY 161353Z 17015G19KT 10SM FEW020 BKN080 28/24 A2993 RMK AO2 SLP124 T02780244
KGKY 161253Z 17009KT 10SM CLR 26/24 A2992 RMK AO2 SLP120 T02610239
KGKY 161153Z 17009KT 10SM CLR 26/23 A2990 RMK AO2 SLP113 60000 T02610233 10300 20261 53014
KGKY 161053Z AUTO 16010KT 10SM CLR 26/23 A2988 RMK AO2 SLP107 T02610233
KGKY 160953Z AUTO 17009KT 10SM FEW110 27/23 A2987 RMK AO2 SLP103 T02720228
KGKY 160853Z AUTO 16011G21KT 10SM CLR 28/22 A2986 RMK AO2 SLP099 60000 T02780222 55001
KGKY 160753Z AUTO 17015G18KT 10SM CLR 29/23 A2985 RMK AO2 SLP098 T02890228
KGKY 160653Z AUTO 17013KT 10SM CLR 29/23 A2986 RMK AO2 RAB23E33 SLP099 P0000 T02940228
KGKY 160553Z AUTO 16011KT 10SM CLR 30/22 A2986 RMK AO2 SLP100 T03000222 10344 20300 403440261 50009
KGKY 160453Z AUTO 16012KT 10SM CLR 31/21 A2986 RMK AO2 SLP101 T03060211
KGKY 160353Z AUTO 15005KT 10SM CLR 31/21 A2985 RMK AO2 SLP098 T03060206
KGKY 160253Z AUTO 14006KT 10SM CLR 30/21 A2983 RMK AO2 SLP092 T03000211 53022
KGKY 160153Z AUTO 13007KT 10SM CLR 31/21 A2980 RMK AO2 SLP080 T03110211
KGKY 160053Z 14009KT 10SM CLR 33/20 A2977 RMK AO2 SLP072 T03280200
KGKY 152353Z 13009KT 10SM CLR 34/21 A2977 RMK AO2 SLP068 T03440211 10344 20306 56020
KGKY 152253Z 15011KT 10SM CLR 34/21 A2978 RMK AO2 SLP072 T03440211
KGKY 152153Z 18007KT 10SM FEW055 34/22 A2980 RMK AO2 SLP080 T03390217
KGKY 152053Z VRB05KT 10SM CLR 33/22 A2983 RMK AO2 SLP088 T03330222 57019
KGKY 151953Z 16009KT 10SM CLR 32/22 A2984 RMK AO2 SLP094 T03220222
KGKY 151853Z VRB05KT 10SM CLR 32/22 A2987 RMK AO2 SLP102 T03170222
KGKY 151753Z 19008KT 10SM CLR 31/23 A2988 RMK AO2 SLP109 T03060228 10311 20261 50002
KGKY 151653Z 16010G15KT 10SM CLR 30/23 A2990 RMK AO2 SLP113 T03000228
KGKY 151553Z 18007KT 10SM CLR 28/23 A2990 RMK AO2 SLP115 T02780228
KGKY 151453Z VRB05KT 10SM FEW100 28/24 A2988 RMK AO2 SLP107 T02780239 51013
KGKY 151353Z 17007KT 10SM SCT120 26/23 A2986 RMK AO2 SLP101 T02610233
KGKY 151253Z 16008KT 10SM SCT110 26/23 A2985 RMK AO2 SLP099 T02610233
KGKY 151153Z 16005KT 10SM CLR 26/23 A2984 RMK AO2 SLP094 70021 T02610228 10283 20261 53009
KGKY 151053Z AUTO 16011KT 10SM CLR 27/22 A2983 RMK AO2 SLP089 T02670222
KGKY 150953Z AUTO 16009KT 10SM CLR 27/23 A2982 RMK AO2 SLP086 T02720228
KGKY 150853Z AUTO 17011KT 10SM CLR 28/23 A2981 RMK AO2 SLP084 T02780228 53002
KGKY 150753Z AUTO 16008KT 10SM CLR 28/22 A2981 RMK AO2 SLP085 T02830222